sensor_id;sensor_type;location;lat;lon;timestamp;P1;durP1;ratioP1;P2;durP2;ratioP2
69890;SDS011;57170;43.964;21.262;2022-09-02T00:00:24;25.90;;;20.52;;
69890;SDS011;57170;43.964;21.262;2022-09-02T00:02:50;26.60;;;20.70;;
69890;SDS011;57170;43.964;21.262;2022-09-02T00:05:18;28.67;;;21.73;;
69890;SDS011;57170;43.964;21.262;2022-09-02T00:07:44;26.02;;;20.40;;
69890;SDS011;57170;43.964;21.262;2022-09-02T00:10:11;24.88;;;19.00;;
69890;SDS011;57170;43.964;21.262;2022-09-02T00:12:37;28.83;;;19.08;;
69890;SDS011;57170;43.964;21.262;2022-09-02T00:15:03;25.20;;;19.35;;
69890;SDS011;57170;43.964;21.262;2022-09-02T00:17:29;24.90;;;18.58;;
69890;SDS011;57170;43.964;21.262;2022-09-02T00:19:55;25.92;;;19.17;;
69890;SDS011;57170;43.964;21.262;2022-09-02T00:22:21;24.50;;;18.33;;
69890;SDS011;57170;43.964;21.262;2022-09-02T00:24:48;23.10;;;17.27;;
69890;SDS011;57170;43.964;21.262;2022-09-02T00:27:14;23.48;;;17.67;;
69890;SDS011;57170;43.964;21.262;2022-09-02T00:29:40;19.85;;;16.40;;
69890;SDS011;57170;43.964;21.262;2022-09-02T00:32:07;21.88;;;16.52;;
69890;SDS011;57170;43.964;21.262;2022-09-02T00:34:33;21.77;;;15.93;;
69890;SDS011;57170;43.964;21.262;2022-09-02T00:36:59;19.85;;;16.52;;
69890;SDS011;57170;43.964;21.262;2022-09-02T00:39:25;17.95;;;15.80;;
69890;SDS011;57170;43.964;21.262;2022-09-02T00:41:51;25.08;;;17.55;;
69890;SDS011;57170;43.964;21.262;2022-09-02T00:44:18;23.73;;;16.90;;
69890;SDS011;57170;43.964;21.262;2022-09-02T00:46:45;19.85;;;16.13;;
69890;SDS011;57170;43.964;21.262;2022-09-02T00:54:09;17.88;;;13.43;;
69890;SDS011;57170;43.964;21.262;2022-09-02T00:56:37;14.82;;;12.68;;
69890;SDS011;57170;43.964;21.262;2022-09-02T00:59:04;20.23;;;12.80;;
69890;SDS011;57170;43.964;21.262;2022-09-02T01:01:30;15.55;;;11.15;;
69890;SDS011;57170;43.964;21.262;2022-09-02T01:03:56;14.10;;;10.98;;
69890;SDS011;57170;43.964;21.262;2022-09-02T01:06:23;12.00;;;10.10;;
69890;SDS011;57170;43.964;21.262;2022-09-02T01:08:52;13.60;;;10.38;;
69890;SDS011;57170;43.964;21.262;2022-09-02T01:11:21;13.95;;;10.02;;
69890;SDS011;57170;43.964;21.262;2022-09-02T01:13:47;13.68;;;10.00;;
69890;SDS011;57170;43.964;21.262;2022-09-02T01:16:25;10.73;;;9.00;;
69890;SDS011;57170;43.964;21.262;2022-09-02T01:18:53;12.23;;;9.30;;
69890;SDS011;57170;43.964;21.262;2022-09-02T01:21:20;12.35;;;9.35;;
69890;SDS011;57170;43.964;21.262;2022-09-02T01:23:47;13.07;;;9.80;;
69890;SDS011;57170;43.964;21.262;2022-09-02T01:26:13;14.43;;;8.82;;
69890;SDS011;57170;43.964;21.262;2022-09-02T01:28:40;12.10;;;7.82;;
69890;SDS011;57170;43.964;21.262;2022-09-02T01:31:06;10.77;;;8.30;;
69890;SDS011;57170;43.964;21.262;2022-09-02T01:33:32;8.35;;;6.43;;
69890;SDS011;57170;43.964;21.262;2022-09-02T01:35:58;10.02;;;7.43;;
69890;SDS011;57170;43.964;21.262;2022-09-02T01:38:26;7.72;;;6.25;;
69890;SDS011;57170;43.964;21.262;2022-09-02T01:40:53;8.82;;;6.53;;
69890;SDS011;57170;43.964;21.262;2022-09-02T01:43:21;9.27;;;6.38;;
69890;SDS011;57170;43.964;21.262;2022-09-02T01:45:48;11.93;;;7.38;;
69890;SDS011;57170;43.964;21.262;2022-09-02T01:48:15;9.00;;;6.63;;
69890;SDS011;57170;43.964;21.262;2022-09-02T01:50:45;8.20;;;6.70;;
69890;SDS011;57170;43.964;21.262;2022-09-02T01:53:11;9.48;;;6.30;;
69890;SDS011;57170;43.964;21.262;2022-09-02T01:55:38;8.80;;;6.53;;
69890;SDS011;57170;43.964;21.262;2022-09-02T01:58:04;6.78;;;5.60;;
69890;SDS011;57170;43.964;21.262;2022-09-02T02:00:30;7.60;;;6.47;;
69890;SDS011;57170;43.964;21.262;2022-09-02T02:02:56;6.65;;;5.95;;
69890;SDS011;57170;43.964;21.262;2022-09-02T02:05:22;8.25;;;6.05;;
69890;SDS011;57170;43.964;21.262;2022-09-02T02:07:48;9.20;;;5.40;;
69890;SDS011;57170;43.964;21.262;2022-09-02T02:10:15;7.85;;;5.75;;
69890;SDS011;57170;43.964;21.262;2022-09-02T02:12:42;6.03;;;5.05;;
69890;SDS011;57170;43.964;21.262;2022-09-02T02:15:09;11.40;;;6.25;;
69890;SDS011;57170;43.964;21.262;2022-09-02T02:17:36;7.82;;;5.50;;
69890;SDS011;57170;43.964;21.262;2022-09-02T02:20:03;7.38;;;5.30;;
69890;SDS011;57170;43.964;21.262;2022-09-02T02:22:30;9.15;;;6.15;;
69890;SDS011;57170;43.964;21.262;2022-09-02T02:24:56;7.93;;;5.47;;
69890;SDS011;57170;43.964;21.262;2022-09-02T02:27:22;7.32;;;6.22;;
69890;SDS011;57170;43.964;21.262;2022-09-02T02:29:48;8.60;;;6.30;;
69890;SDS011;57170;43.964;21.262;2022-09-02T02:32:14;5.80;;;5.05;;
69890;SDS011;57170;43.964;21.262;2022-09-02T02:34:42;5.47;;;4.90;;
69890;SDS011;57170;43.964;21.262;2022-09-02T02:37:09;7.15;;;4.15;;
69890;SDS011;57170;43.964;21.262;2022-09-02T02:39:37;10.20;;;4.72;;
69890;SDS011;57170;43.964;21.262;2022-09-02T02:42:03;5.95;;;4.53;;
69890;SDS011;57170;43.964;21.262;2022-09-02T02:44:30;7.20;;;3.90;;
69890;SDS011;57170;43.964;21.262;2022-09-02T02:46:56;6.55;;;4.28;;
69890;SDS011;57170;43.964;21.262;2022-09-02T02:49:22;5.82;;;4.38;;
69890;SDS011;57170;43.964;21.262;2022-09-02T02:51:50;5.60;;;3.72;;
69890;SDS011;57170;43.964;21.262;2022-09-02T02:54:17;5.88;;;3.90;;
69890;SDS011;57170;43.964;21.262;2022-09-02T02:56:44;4.63;;;3.38;;
69890;SDS011;57170;43.964;21.262;2022-09-02T02:59:10;4.90;;;3.45;;
69890;SDS011;57170;43.964;21.262;2022-09-02T03:01:36;4.68;;;3.60;;
69890;SDS011;57170;43.964;21.262;2022-09-02T03:04:02;4.55;;;3.42;;
69890;SDS011;57170;43.964;21.262;2022-09-02T03:06:28;4.57;;;3.53;;
69890;SDS011;57170;43.964;21.262;2022-09-02T03:08:55;4.88;;;3.85;;
69890;SDS011;57170;43.964;21.262;2022-09-02T03:11:21;4.93;;;3.67;;
69890;SDS011;57170;43.964;21.262;2022-09-02T03:13:50;5.80;;;3.38;;
69890;SDS011;57170;43.964;21.262;2022-09-02T03:16:17;5.35;;;3.35;;
69890;SDS011;57170;43.964;21.262;2022-09-02T03:18:44;4.88;;;3.30;;
69890;SDS011;57170;43.964;21.262;2022-09-02T03:21:10;4.13;;;3.40;;
69890;SDS011;57170;43.964;21.262;2022-09-02T03:23:37;5.90;;;4.10;;
69890;SDS011;57170;43.964;21.262;2022-09-02T03:26:13;5.50;;;3.63;;
69890;SDS011;57170;43.964;21.262;2022-09-02T03:28:40;6.50;;;4.03;;
69890;SDS011;57170;43.964;21.262;2022-09-02T03:31:06;5.30;;;4.07;;
69890;SDS011;57170;43.964;21.262;2022-09-02T03:33:32;4.57;;;3.55;;
69890;SDS011;57170;43.964;21.262;2022-09-02T03:35:59;7.05;;;4.65;;
69890;SDS011;57170;43.964;21.262;2022-09-02T03:38:25;4.80;;;3.90;;
69890;SDS011;57170;43.964;21.262;2022-09-02T03:40:51;5.78;;;3.65;;
69890;SDS011;57170;43.964;21.262;2022-09-02T03:43:17;4.50;;;3.78;;
69890;SDS011;57170;43.964;21.262;2022-09-02T03:45:43;6.05;;;3.78;;
69890;SDS011;57170;43.964;21.262;2022-09-02T03:48:10;4.63;;;3.78;;
69890;SDS011;57170;43.964;21.262;2022-09-02T03:50:38;4.63;;;3.75;;
69890;SDS011;57170;43.964;21.262;2022-09-02T03:53:05;6.03;;;4.03;;
69890;SDS011;57170;43.964;21.262;2022-09-02T03:55:31;6.70;;;4.00;;
69890;SDS011;57170;43.964;21.262;2022-09-02T03:57:58;6.10;;;4.53;;
69890;SDS011;57170;43.964;21.262;2022-09-02T04:00:24;4.93;;;3.85;;
69890;SDS011;57170;43.964;21.262;2022-09-02T04:02:56;5.60;;;4.28;;
69890;SDS011;57170;43.964;21.262;2022-09-02T04:05:22;5.25;;;4.20;;
69890;SDS011;57170;43.964;21.262;2022-09-02T04:07:49;4.65;;;3.38;;
69890;SDS011;57170;43.964;21.262;2022-09-02T04:10:16;4.65;;;3.75;;
69890;SDS011;57170;43.964;21.262;2022-09-02T04:12:42;5.05;;;4.07;;
69890;SDS011;57170;43.964;21.262;2022-09-02T04:15:09;5.70;;;4.65;;
69890;SDS011;57170;43.964;21.262;2022-09-02T04:17:36;4.43;;;4.00;;
69890;SDS011;57170;43.964;21.262;2022-09-02T04:20:04;5.30;;;3.80;;
69890;SDS011;57170;43.964;21.262;2022-09-02T04:22:30;8.63;;;4.30;;
69890;SDS011;57170;43.964;21.262;2022-09-02T04:24:57;6.18;;;4.10;;
69890;SDS011;57170;43.964;21.262;2022-09-02T04:27:23;5.35;;;4.40;;
69890;SDS011;57170;43.964;21.262;2022-09-02T04:29:49;5.30;;;4.28;;
69890;SDS011;57170;43.964;21.262;2022-09-02T04:32:15;8.00;;;4.78;;
69890;SDS011;57170;43.964;21.262;2022-09-02T04:34:42;6.70;;;4.80;;
69890;SDS011;57170;43.964;21.262;2022-09-02T04:37:08;5.65;;;4.60;;
69890;SDS011;57170;43.964;21.262;2022-09-02T04:39:34;5.40;;;4.57;;
69890;SDS011;57170;43.964;21.262;2022-09-02T04:42:00;4.55;;;3.95;;
69890;SDS011;57170;43.964;21.262;2022-09-02T04:44:26;7.00;;;4.25;;
69890;SDS011;57170;43.964;21.262;2022-09-02T04:46:52;6.10;;;4.50;;
69890;SDS011;57170;43.964;21.262;2022-09-02T04:49:18;4.80;;;4.28;;
69890;SDS011;57170;43.964;21.262;2022-09-02T04:51:44;8.43;;;4.35;;
69890;SDS011;57170;43.964;21.262;2022-09-02T04:54:10;4.35;;;3.67;;
69890;SDS011;57170;43.964;21.262;2022-09-02T04:56:37;5.68;;;4.43;;
69890;SDS011;57170;43.964;21.262;2022-09-02T04:59:03;6.05;;;4.20;;
69890;SDS011;57170;43.964;21.262;2022-09-02T05:01:31;5.40;;;4.63;;
69890;SDS011;57170;43.964;21.262;2022-09-02T05:03:57;4.85;;;3.60;;
69890;SDS011;57170;43.964;21.262;2022-09-02T05:06:24;5.85;;;4.22;;
69890;SDS011;57170;43.964;21.262;2022-09-02T05:08:51;5.18;;;4.18;;
69890;SDS011;57170;43.964;21.262;2022-09-02T05:11:19;6.47;;;4.13;;
69890;SDS011;57170;43.964;21.262;2022-09-02T05:13:47;7.22;;;4.55;;
69890;SDS011;57170;43.964;21.262;2022-09-02T05:16:15;5.18;;;4.07;;
69890;SDS011;57170;43.964;21.262;2022-09-02T05:18:42;5.22;;;4.15;;
69890;SDS011;57170;43.964;21.262;2022-09-02T05:21:09;5.72;;;4.53;;
69890;SDS011;57170;43.964;21.262;2022-09-02T05:23:35;7.03;;;4.60;;
69890;SDS011;57170;43.964;21.262;2022-09-02T05:26:04;7.22;;;4.32;;
69890;SDS011;57170;43.964;21.262;2022-09-02T05:28:31;5.63;;;4.50;;
69890;SDS011;57170;43.964;21.262;2022-09-02T05:31:01;5.35;;;4.70;;
69890;SDS011;57170;43.964;21.262;2022-09-02T05:33:27;5.03;;;4.30;;
69890;SDS011;57170;43.964;21.262;2022-09-02T05:35:53;5.03;;;4.32;;
69890;SDS011;57170;43.964;21.262;2022-09-02T05:38:19;6.18;;;4.45;;
69890;SDS011;57170;43.964;21.262;2022-09-02T05:40:45;5.55;;;4.78;;
69890;SDS011;57170;43.964;21.262;2022-09-02T05:43:12;4.38;;;3.90;;
69890;SDS011;57170;43.964;21.262;2022-09-02T05:45:38;5.47;;;4.72;;
69890;SDS011;57170;43.964;21.262;2022-09-02T05:48:05;6.80;;;4.40;;
69890;SDS011;57170;43.964;21.262;2022-09-02T05:50:51;5.78;;;4.10;;
69890;SDS011;57170;43.964;21.262;2022-09-02T05:53:17;4.78;;;4.28;;
69890;SDS011;57170;43.964;21.262;2022-09-02T05:55:43;6.28;;;4.60;;
69890;SDS011;57170;43.964;21.262;2022-09-02T05:58:09;7.13;;;4.53;;
69890;SDS011;57170;43.964;21.262;2022-09-02T06:00:36;5.85;;;4.43;;
69890;SDS011;57170;43.964;21.262;2022-09-02T06:03:04;4.40;;;3.50;;
69890;SDS011;57170;43.964;21.262;2022-09-02T06:05:30;4.70;;;4.20;;
69890;SDS011;57170;43.964;21.262;2022-09-02T06:07:57;5.25;;;4.00;;
69890;SDS011;57170;43.964;21.262;2022-09-02T06:10:23;5.32;;;3.92;;
69890;SDS011;57170;43.964;21.262;2022-09-02T06:12:49;4.93;;;3.88;;
69890;SDS011;57170;43.964;21.262;2022-09-02T06:15:15;5.00;;;4.35;;
69890;SDS011;57170;43.964;21.262;2022-09-02T06:17:42;6.32;;;4.10;;
69890;SDS011;57170;43.964;21.262;2022-09-02T06:20:08;5.60;;;3.83;;
69890;SDS011;57170;43.964;21.262;2022-09-02T06:22:34;4.65;;;3.45;;
69890;SDS011;57170;43.964;21.262;2022-09-02T06:25:00;5.50;;;3.83;;
69890;SDS011;57170;43.964;21.262;2022-09-02T06:27:27;4.90;;;3.90;;
69890;SDS011;57170;43.964;21.262;2022-09-02T06:29:53;5.25;;;3.97;;
69890;SDS011;57170;43.964;21.262;2022-09-02T06:32:20;4.75;;;3.78;;
69890;SDS011;57170;43.964;21.262;2022-09-02T06:34:46;4.82;;;3.90;;
69890;SDS011;57170;43.964;21.262;2022-09-02T06:37:12;6.32;;;3.85;;
69890;SDS011;57170;43.964;21.262;2022-09-02T06:39:38;7.40;;;4.28;;
69890;SDS011;57170;43.964;21.262;2022-09-02T06:42:08;4.68;;;3.97;;
69890;SDS011;57170;43.964;21.262;2022-09-02T06:44:34;4.78;;;4.20;;
69890;SDS011;57170;43.964;21.262;2022-09-02T06:47:02;4.35;;;3.60;;
69890;SDS011;57170;43.964;21.262;2022-09-02T06:49:28;4.60;;;3.70;;
69890;SDS011;57170;43.964;21.262;2022-09-02T06:51:54;5.70;;;4.32;;
69890;SDS011;57170;43.964;21.262;2022-09-02T06:54:21;6.63;;;4.28;;
69890;SDS011;57170;43.964;21.262;2022-09-02T06:56:47;4.93;;;3.95;;
69890;SDS011;57170;43.964;21.262;2022-09-02T06:59:14;4.85;;;3.38;;
69890;SDS011;57170;43.964;21.262;2022-09-02T07:01:41;6.07;;;4.85;;
69890;SDS011;57170;43.964;21.262;2022-09-02T07:04:07;4.95;;;4.25;;
69890;SDS011;57170;43.964;21.262;2022-09-02T07:06:53;4.40;;;3.45;;
69890;SDS011;57170;43.964;21.262;2022-09-02T07:09:21;5.25;;;3.53;;
69890;SDS011;57170;43.964;21.262;2022-09-02T07:11:49;4.68;;;3.50;;
69890;SDS011;57170;43.964;21.262;2022-09-02T07:14:16;4.72;;;3.22;;
69890;SDS011;57170;43.964;21.262;2022-09-02T07:16:44;5.03;;;3.97;;
69890;SDS011;57170;43.964;21.262;2022-09-02T07:19:10;4.70;;;3.92;;
69890;SDS011;57170;43.964;21.262;2022-09-02T07:21:37;4.60;;;3.85;;
69890;SDS011;57170;43.964;21.262;2022-09-02T07:24:05;4.38;;;3.30;;
69890;SDS011;57170;43.964;21.262;2022-09-02T07:26:32;5.90;;;3.17;;
69890;SDS011;57170;43.964;21.262;2022-09-02T07:28:58;4.40;;;3.60;;
69890;SDS011;57170;43.964;21.262;2022-09-02T07:31:25;5.57;;;4.05;;
69890;SDS011;57170;43.964;21.262;2022-09-02T07:33:53;4.55;;;3.50;;
69890;SDS011;57170;43.964;21.262;2022-09-02T07:36:24;3.92;;;2.97;;
69890;SDS011;57170;43.964;21.262;2022-09-02T07:38:51;3.63;;;3.20;;
69890;SDS011;57170;43.964;21.262;2022-09-02T07:41:20;3.75;;;2.55;;
69890;SDS011;57170;43.964;21.262;2022-09-02T07:43:46;3.63;;;2.70;;
69890;SDS011;57170;43.964;21.262;2022-09-02T07:46:13;4.68;;;3.25;;
69890;SDS011;57170;43.964;21.262;2022-09-02T07:48:40;4.18;;;2.60;;
69890;SDS011;57170;43.964;21.262;2022-09-02T07:51:06;5.80;;;2.83;;
69890;SDS011;57170;43.964;21.262;2022-09-02T07:53:33;4.53;;;3.40;;
69890;SDS011;57170;43.964;21.262;2022-09-02T07:56:00;4.18;;;2.78;;
69890;SDS011;57170;43.964;21.262;2022-09-02T07:58:26;4.00;;;2.92;;
69890;SDS011;57170;43.964;21.262;2022-09-02T08:00:52;3.85;;;2.63;;
69890;SDS011;57170;43.964;21.262;2022-09-02T08:03:21;3.55;;;2.60;;
69890;SDS011;57170;43.964;21.262;2022-09-02T08:05:47;3.58;;;2.83;;
69890;SDS011;57170;43.964;21.262;2022-09-02T08:08:14;3.90;;;3.17;;
69890;SDS011;57170;43.964;21.262;2022-09-02T08:10:44;9.30;;;4.03;;
69890;SDS011;57170;43.964;21.262;2022-09-02T08:13:10;4.55;;;3.63;;
69890;SDS011;57170;43.964;21.262;2022-09-02T08:15:37;5.30;;;3.80;;
69890;SDS011;57170;43.964;21.262;2022-09-02T08:18:04;5.65;;;3.40;;
69890;SDS011;57170;43.964;21.262;2022-09-02T08:20:31;5.13;;;4.00;;
69890;SDS011;57170;43.964;21.262;2022-09-02T08:22:57;5.18;;;3.83;;
69890;SDS011;57170;43.964;21.262;2022-09-02T08:25:23;4.75;;;3.63;;
69890;SDS011;57170;43.964;21.262;2022-09-02T08:27:49;5.40;;;3.72;;
69890;SDS011;57170;43.964;21.262;2022-09-02T08:30:15;7.28;;;4.22;;
69890;SDS011;57170;43.964;21.262;2022-09-02T08:32:41;4.93;;;3.97;;
69890;SDS011;57170;43.964;21.262;2022-09-02T08:35:08;6.03;;;5.00;;
69890;SDS011;57170;43.964;21.262;2022-09-02T08:37:34;6.97;;;5.68;;
69890;SDS011;57170;43.964;21.262;2022-09-02T08:40:01;6.63;;;4.55;;
69890;SDS011;57170;43.964;21.262;2022-09-02T08:42:32;6.97;;;5.30;;
69890;SDS011;57170;43.964;21.262;2022-09-02T08:47:44;5.78;;;4.43;;
69890;SDS011;57170;43.964;21.262;2022-09-02T08:50:16;5.00;;;3.38;;
69890;SDS011;57170;43.964;21.262;2022-09-02T08:52:45;5.07;;;3.80;;
69890;SDS011;57170;43.964;21.262;2022-09-02T08:55:23;6.80;;;5.57;;
69890;SDS011;57170;43.964;21.262;2022-09-02T08:57:52;5.88;;;4.90;;
69890;SDS011;57170;43.964;21.262;2022-09-02T09:00:20;6.53;;;4.93;;
69890;SDS011;57170;43.964;21.262;2022-09-02T09:15:58;7.17;;;5.40;;
69890;SDS011;57170;43.964;21.262;2022-09-02T09:18:37;5.35;;;4.53;;
69890;SDS011;57170;43.964;21.262;2022-09-02T09:21:04;5.35;;;4.72;;
69890;SDS011;57170;43.964;21.262;2022-09-02T09:23:31;5.60;;;4.30;;
69890;SDS011;57170;43.964;21.262;2022-09-02T09:26:16;5.07;;;4.57;;
69890;SDS011;57170;43.964;21.262;2022-09-02T09:28:44;6.35;;;3.80;;
69890;SDS011;57170;43.964;21.262;2022-09-02T09:31:13;4.00;;;3.25;;
69890;SDS011;57170;43.964;21.262;2022-09-02T09:33:53;5.43;;;3.50;;
69890;SDS011;57170;43.964;21.262;2022-09-02T09:36:23;7.00;;;4.15;;
69890;SDS011;57170;43.964;21.262;2022-09-02T09:39:16;4.60;;;3.38;;
69890;SDS011;57170;43.964;21.262;2022-09-02T09:41:43;5.15;;;3.75;;
69890;SDS011;57170;43.964;21.262;2022-09-02T09:44:09;7.15;;;4.13;;
69890;SDS011;57170;43.964;21.262;2022-09-02T09:46:35;5.13;;;3.83;;
69890;SDS011;57170;43.964;21.262;2022-09-02T09:49:01;5.88;;;4.10;;
69890;SDS011;57170;43.964;21.262;2022-09-02T09:51:27;6.07;;;3.97;;
69890;SDS011;57170;43.964;21.262;2022-09-02T09:54:12;6.18;;;4.43;;
69890;SDS011;57170;43.964;21.262;2022-09-02T09:56:39;4.68;;;3.55;;
69890;SDS011;57170;43.964;21.262;2022-09-02T09:59:06;4.65;;;4.03;;
69890;SDS011;57170;43.964;21.262;2022-09-02T10:01:33;5.13;;;4.55;;
69890;SDS011;57170;43.964;21.262;2022-09-02T10:04:07;7.85;;;6.20;;
69890;SDS011;57170;43.964;21.262;2022-09-02T10:11:38;4.50;;;3.60;;
69890;SDS011;57170;43.964;21.262;2022-09-02T10:14:18;5.05;;;3.78;;
69890;SDS011;57170;43.964;21.262;2022-09-02T10:26:56;5.78;;;3.85;;
69890;SDS011;57170;43.964;21.262;2022-09-02T10:34:40;5.63;;;4.45;;
69890;SDS011;57170;43.964;21.262;2022-09-02T10:37:10;7.47;;;4.97;;
69890;SDS011;57170;43.964;21.262;2022-09-02T10:47:30;6.68;;;5.65;;
69890;SDS011;57170;43.964;21.262;2022-09-02T10:52:47;6.97;;;6.10;;
69890;SDS011;57170;43.964;21.262;2022-09-02T10:57:54;8.80;;;6.25;;
69890;SDS011;57170;43.964;21.262;2022-09-02T11:00:23;9.52;;;7.80;;
69890;SDS011;57170;43.964;21.262;2022-09-02T11:05:27;13.75;;;7.95;;
69890;SDS011;57170;43.964;21.262;2022-09-02T11:08:07;8.75;;;7.78;;
69890;SDS011;57170;43.964;21.262;2022-09-02T11:10:40;8.50;;;7.60;;
69890;SDS011;57170;43.964;21.262;2022-09-02T11:18:02;12.20;;;7.88;;
69890;SDS011;57170;43.964;21.262;2022-09-02T11:21:17;10.43;;;8.40;;
69890;SDS011;57170;43.964;21.262;2022-09-02T11:23:38;10.00;;;8.98;;
69890;SDS011;57170;43.964;21.262;2022-09-02T11:28:42;12.00;;;10.07;;
69890;SDS011;57170;43.964;21.262;2022-09-02T11:31:20;10.63;;;9.50;;
69890;SDS011;57170;43.964;21.262;2022-09-02T11:36:23;9.80;;;8.80;;
69890;SDS011;57170;43.964;21.262;2022-09-02T11:39:03;12.95;;;9.98;;
69890;SDS011;57170;43.964;21.262;2022-09-02T11:51:59;11.27;;;10.07;;
69890;SDS011;57170;43.964;21.262;2022-09-02T11:54:27;12.00;;;10.45;;
69890;SDS011;57170;43.964;21.262;2022-09-02T11:56:58;10.85;;;9.75;;
69890;SDS011;57170;43.964;21.262;2022-09-02T12:02:11;11.68;;;10.45;;
69890;SDS011;57170;43.964;21.262;2022-09-02T12:04:37;11.23;;;9.70;;
69890;SDS011;57170;43.964;21.262;2022-09-02T12:09:43;11.30;;;10.15;;
69890;SDS011;57170;43.964;21.262;2022-09-02T12:17:35;12.40;;;11.20;;
69890;SDS011;57170;43.964;21.262;2022-09-02T12:20:02;12.48;;;10.77;;
69890;SDS011;57170;43.964;21.262;2022-09-02T12:22:34;15.10;;;11.38;;
69890;SDS011;57170;43.964;21.262;2022-09-02T12:25:03;12.13;;;10.60;;
69890;SDS011;57170;43.964;21.262;2022-09-02T12:27:36;11.68;;;10.45;;
69890;SDS011;57170;43.964;21.262;2022-09-02T12:30:04;13.60;;;11.80;;
69890;SDS011;57170;43.964;21.262;2022-09-02T12:35:32;12.82;;;11.52;;
69890;SDS011;57170;43.964;21.262;2022-09-02T12:40:49;14.15;;;12.65;;
69890;SDS011;57170;43.964;21.262;2022-09-02T12:43:21;15.00;;;12.65;;
69890;SDS011;57170;43.964;21.262;2022-09-02T12:45:49;13.95;;;12.55;;
69890;SDS011;57170;43.964;21.262;2022-09-02T12:48:16;14.40;;;12.90;;
69890;SDS011;57170;43.964;21.262;2022-09-02T12:53:25;18.77;;;14.93;;
69890;SDS011;57170;43.964;21.262;2022-09-02T12:56:04;20.85;;;17.23;;
69890;SDS011;57170;43.964;21.262;2022-09-02T13:01:22;18.50;;;16.02;;
69890;SDS011;57170;43.964;21.262;2022-09-02T13:03:59;18.08;;;16.27;;
69890;SDS011;57170;43.964;21.262;2022-09-02T13:06:33;21.48;;;17.85;;
69890;SDS011;57170;43.964;21.262;2022-09-02T13:32:43;27.40;;;22.70;;
69890;SDS011;57170;43.964;21.262;2022-09-02T13:35:26;25.35;;;21.60;;
69890;SDS011;57170;43.964;21.262;2022-09-02T13:37:56;27.10;;;22.20;;
69890;SDS011;57170;43.964;21.262;2022-09-02T13:42:51;26.05;;;21.73;;
69890;SDS011;57170;43.964;21.262;2022-09-02T13:45:21;26.77;;;23.30;;
69890;SDS011;57170;43.964;21.262;2022-09-02T13:47:49;26.73;;;22.60;;
69890;SDS011;57170;43.964;21.262;2022-09-02T13:50:17;24.85;;;20.48;;
69890;SDS011;57170;43.964;21.262;2022-09-02T13:52:45;24.98;;;21.85;;
69890;SDS011;57170;43.964;21.262;2022-09-02T13:55:12;27.05;;;24.10;;
69890;SDS011;57170;43.964;21.262;2022-09-02T13:57:42;24.23;;;20.15;;
69890;SDS011;57170;43.964;21.262;2022-09-02T14:00:08;24.95;;;21.63;;
69890;SDS011;57170;43.964;21.262;2022-09-02T14:02:37;28.77;;;23.75;;
69890;SDS011;57170;43.964;21.262;2022-09-02T14:05:14;28.00;;;21.88;;
69890;SDS011;57170;43.964;21.262;2022-09-02T14:07:45;24.83;;;21.95;;
69890;SDS011;57170;43.964;21.262;2022-09-02T14:10:14;23.45;;;20.73;;
69890;SDS011;57170;43.964;21.262;2022-09-02T14:12:40;24.58;;;21.98;;
69890;SDS011;57170;43.964;21.262;2022-09-02T14:15:09;25.95;;;22.40;;
69890;SDS011;57170;43.964;21.262;2022-09-02T14:17:37;26.77;;;22.25;;
69890;SDS011;57170;43.964;21.262;2022-09-02T14:22:35;26.53;;;21.60;;
69890;SDS011;57170;43.964;21.262;2022-09-02T14:25:14;28.65;;;24.00;;
69890;SDS011;57170;43.964;21.262;2022-09-02T14:27:51;28.75;;;24.05;;
69890;SDS011;57170;43.964;21.262;2022-09-02T14:30:52;30.25;;;23.75;;
69890;SDS011;57170;43.964;21.262;2022-09-02T14:33:17;29.60;;;24.48;;
69890;SDS011;57170;43.964;21.262;2022-09-02T14:38:26;32.47;;;27.25;;
69890;SDS011;57170;43.964;21.262;2022-09-02T14:40:59;34.60;;;28.95;;
69890;SDS011;57170;43.964;21.262;2022-09-02T14:46:02;39.97;;;27.98;;
69890;SDS011;57170;43.964;21.262;2022-09-02T14:48:28;35.85;;;28.10;;
69890;SDS011;57170;43.964;21.262;2022-09-02T14:50:58;38.63;;;29.83;;
69890;SDS011;57170;43.964;21.262;2022-09-02T14:53:26;34.00;;;29.45;;
69890;SDS011;57170;43.964;21.262;2022-09-02T14:55:53;41.35;;;28.98;;
69890;SDS011;57170;43.964;21.262;2022-09-02T14:58:20;45.63;;;32.65;;
69890;SDS011;57170;43.964;21.262;2022-09-02T15:00:47;39.60;;;30.60;;
69890;SDS011;57170;43.964;21.262;2022-09-02T15:03:16;44.90;;;34.95;;
69890;SDS011;57170;43.964;21.262;2022-09-02T15:05:43;48.15;;;35.00;;
69890;SDS011;57170;43.964;21.262;2022-09-02T15:08:09;38.30;;;31.33;;
69890;SDS011;57170;43.964;21.262;2022-09-02T15:10:38;43.05;;;33.60;;
69890;SDS011;57170;43.964;21.262;2022-09-02T15:13:12;41.17;;;33.22;;
69890;SDS011;57170;43.964;21.262;2022-09-02T15:15:40;44.50;;;35.08;;
69890;SDS011;57170;43.964;21.262;2022-09-02T15:18:06;46.85;;;34.00;;
69890;SDS011;57170;43.964;21.262;2022-09-02T15:20:32;48.65;;;32.97;;
69890;SDS011;57170;43.964;21.262;2022-09-02T15:22:58;41.70;;;33.50;;
69890;SDS011;57170;43.964;21.262;2022-09-02T15:25:24;44.03;;;33.80;;
69890;SDS011;57170;43.964;21.262;2022-09-02T15:27:50;42.95;;;34.05;;
69890;SDS011;57170;43.964;21.262;2022-09-02T15:30:17;48.63;;;35.30;;
69890;SDS011;57170;43.964;21.262;2022-09-02T15:32:43;52.28;;;37.15;;
69890;SDS011;57170;43.964;21.262;2022-09-02T15:35:09;45.90;;;34.42;;
69890;SDS011;57170;43.964;21.262;2022-09-02T15:37:35;45.95;;;35.08;;
69890;SDS011;57170;43.964;21.262;2022-09-02T15:40:06;46.40;;;34.33;;
69890;SDS011;57170;43.964;21.262;2022-09-02T15:42:36;45.03;;;35.83;;
69890;SDS011;57170;43.964;21.262;2022-09-02T15:45:03;47.20;;;34.10;;
69890;SDS011;57170;43.964;21.262;2022-09-02T15:47:29;43.08;;;32.70;;
69890;SDS011;57170;43.964;21.262;2022-09-02T15:49:56;46.30;;;33.80;;
69890;SDS011;57170;43.964;21.262;2022-09-02T15:52:22;43.92;;;34.60;;
69890;SDS011;57170;43.964;21.262;2022-09-02T15:54:49;42.58;;;32.75;;
69890;SDS011;57170;43.964;21.262;2022-09-02T15:57:15;44.53;;;35.00;;
69890;SDS011;57170;43.964;21.262;2022-09-02T15:59:41;42.53;;;33.90;;
69890;SDS011;57170;43.964;21.262;2022-09-02T16:02:07;45.55;;;34.50;;
69890;SDS011;57170;43.964;21.262;2022-09-02T16:04:33;44.92;;;36.33;;
69890;SDS011;57170;43.964;21.262;2022-09-02T16:06:59;41.83;;;32.45;;
69890;SDS011;57170;43.964;21.262;2022-09-02T16:09:25;46.13;;;34.17;;
69890;SDS011;57170;43.964;21.262;2022-09-02T16:11:52;46.00;;;34.00;;
69890;SDS011;57170;43.964;21.262;2022-09-02T16:14:20;42.85;;;31.23;;
69890;SDS011;57170;43.964;21.262;2022-09-02T16:16:47;44.00;;;32.28;;
69890;SDS011;57170;43.964;21.262;2022-09-02T16:19:14;45.65;;;32.22;;
69890;SDS011;57170;43.964;21.262;2022-09-02T16:21:40;52.53;;;31.42;;
69890;SDS011;57170;43.964;21.262;2022-09-02T16:24:07;40.42;;;30.52;;
69890;SDS011;57170;43.964;21.262;2022-09-02T16:26:34;43.60;;;31.63;;
69890;SDS011;57170;43.964;21.262;2022-09-02T16:29:03;42.55;;;31.27;;
69890;SDS011;57170;43.964;21.262;2022-09-02T16:31:30;46.22;;;33.78;;
69890;SDS011;57170;43.964;21.262;2022-09-02T16:34:02;43.78;;;32.88;;
69890;SDS011;57170;43.964;21.262;2022-09-02T16:36:29;46.08;;;33.35;;
69890;SDS011;57170;43.964;21.262;2022-09-02T16:38:55;48.22;;;33.97;;
69890;SDS011;57170;43.964;21.262;2022-09-02T16:41:22;44.53;;;35.80;;